Time;durP1;ratioP1;P1;durP2;ratioP2;P2;SDS_P1;SDS_P2;PMS_P1;PMS_P2;Temp;Humidity;BMP_temperature;BMP_pressure;BME280_temperature;BME280_humidity;BME280_pressure;Samples;Min_cycle;Max_cycle;Signal;HPM_P1;HPM_P2
2023/02/14 00:01:29;;;;;;;0.33;0.33;;;2.90;86.60;;;;;;5033850;28;20563;-66
2023/02/14 00:03:59;;;;;;;0.50;0.50;;;2.90;87.20;;;;;;5034242;28;20193;-66
2023/02/14 00:06:25;;;;;;;0.40;0.40;;;2.90;87.30;;;;;;5033785;28;20571;-66
2023/02/14 00:08:52;;;;;;;0.60;0.60;;;3.00;87.50;;;;;;5033662;28;20228;-66
2023/02/14 00:11:19;;;;;;;0.40;0.40;;;2.90;87.40;;;;;;5033560;28;20264;-66
2023/02/14 00:16:29;;;;;;;0.40;0.40;;;2.90;87.20;;;;;;5033812;28;20176;-66
2023/02/14 00:19:13;;;;;;;0.30;0.30;;;2.80;86.60;;;;;;5033587;28;20179;-66
2023/02/14 00:21:39;;;;;;;0.30;0.30;;;2.80;86.40;;;;;;5033618;28;20194;-66
2023/02/14 00:24:10;;;;;;;0.40;0.40;;;2.70;86.80;;;;;;5037815;28;20634;-66
2023/02/14 00:26:39;;;;;;;0.38;0.38;;;2.70;88.10;;;;;;5037581;28;20221;-66
2023/02/14 00:29:06;;;;;;;0.40;0.40;;;2.70;88.10;;;;;;5038022;28;20189;-66
2023/02/14 00:31:33;;;;;;;0.88;0.88;;;2.70;88.10;;;;;;5037164;28;20684;-66
2023/02/14 00:33:58;;;;;;;0.30;0.30;;;2.70;88.30;;;;;;5037506;28;20173;-65
2023/02/14 00:36:25;;;;;;;0.40;0.40;;;2.80;87.90;;;;;;5037223;28;20250;-66
2023/02/14 00:38:50;;;;;;;0.40;0.40;;;2.80;86.90;;;;;;5037267;28;20562;-66
2023/02/14 00:41:19;;;;;;;0.30;0.30;;;2.80;86.00;;;;;;5037648;28;20212;-66
2023/02/14 00:43:49;;;;;;;0.40;0.40;;;2.80;85.50;;;;;;5037256;28;20201;-66
2023/02/14 00:46:16;;;;;;;0.40;0.40;;;2.80;84.90;;;;;;5036887;28;20174;-66
2023/02/14 00:48:42;;;;;;;0.65;0.65;;;2.80;84.80;;;;;;5037287;28;20554;-66
2023/02/14 00:51:08;;;;;;;0.50;0.50;;;2.80;84.00;;;;;;5037274;28;20240;-66
2023/02/14 00:53:34;;;;;;;0.40;0.40;;;2.90;82.00;;;;;;5037492;28;20781;-66
2023/02/14 00:56:00;;;;;;;0.35;0.35;;;3.00;82.00;;;;;;5037241;28;20171;-66
2023/02/14 00:58:26;;;;;;;0.40;0.40;;;2.90;82.30;;;;;;5037533;28;20177;-66
2023/02/14 01:00:52;;;;;;;0.50;0.50;;;2.90;83.70;;;;;;5036939;28;20576;-66
2023/02/14 01:03:18;;;;;;;0.40;0.40;;;2.80;85.00;;;;;;5036986;28;20448;-66
2023/02/14 01:05:43;;;;;;;0.30;0.30;;;2.80;86.70;;;;;;5036898;28;20679;-65
2023/02/14 01:08:09;;;;;;;0.60;0.60;;;2.70;87.10;;;;;;5037173;28;20424;-65
2023/02/14 01:10:36;;;;;;;0.40;0.40;;;2.70;87.00;;;;;;5037169;28;20201;-66
2023/02/14 01:13:02;;;;;;;0.40;0.40;;;2.70;86.40;;;;;;5036473;28;20425;-66
2023/02/14 01:15:29;;;;;;;0.85;0.85;;;2.60;85.60;;;;;;5036597;28;20620;-66
2023/02/14 01:17:57;;;;;;;0.77;0.77;;;2.70;86.00;;;;;;5036676;28;20202;-66
2023/02/14 01:20:23;;;;;;;11.85;3.45;;;2.60;86.30;;;;;;5036925;28;20167;-66
2023/02/14 01:22:48;;;;;;;0.40;0.40;;;2.60;86.70;;;;;;5036840;28;20247;-66
2023/02/14 01:25:14;;;;;;;0.83;0.83;;;2.60;86.80;;;;;;5037042;28;20179;-66
2023/02/14 01:27:40;;;;;;;0.77;0.77;;;2.60;86.40;;;;;;5036273;28;20175;-66
2023/02/14 01:30:07;;;;;;;0.40;0.40;;;2.60;85.70;;;;;;5036374;28;20475;-66
2023/02/14 01:32:32;;;;;;;0.40;0.40;;;2.60;85.50;;;;;;5036489;28;20190;-66
2023/02/14 01:34:58;;;;;;;0.40;0.40;;;2.60;85.50;;;;;;5036451;28;20191;-66
2023/02/14 01:37:25;;;;;;;0.43;0.43;;;2.60;85.30;;;;;;5036001;28;20173;-66
2023/02/14 01:39:50;;;;;;;2.08;1.98;;;2.60;85.00;;;;;;5036677;28;20170;-66
2023/02/14 01:42:16;;;;;;;0.30;0.30;;;2.60;84.50;;;;;;5036075;28;20607;-66
2023/02/14 01:44:45;;;;;;;0.40;0.40;;;2.60;84.20;;;;;;5035902;28;20219;-66
2023/02/14 01:47:11;;;;;;;0.40;0.40;;;2.60;84.20;;;;;;5035857;28;20640;-66
2023/02/14 01:49:44;;;;;;;0.40;0.40;;;2.50;84.60;;;;;;5035899;28;20221;-66
2023/02/14 01:52:20;;;;;;;0.40;0.40;;;2.40;85.80;;;;;;5036450;28;20190;-66
2023/02/14 01:54:59;;;;;;;0.30;0.30;;;2.50;86.40;;;;;;5035943;28;20167;-66
2023/02/14 01:57:33;;;;;;;0.40;0.40;;;2.50;86.00;;;;;;5036070;28;20173;-66
2023/02/14 02:00:55;;;;;;;0.40;0.40;;;2.50;85.80;;;;;;5036260;28;20624;-66
2023/02/14 02:02:46;;;;;;;0.40;0.40;;;2.60;85.20;;;;;;5035520;28;20242;-66
2023/02/14 02:05:14;;;;;;;0.40;0.40;;;2.70;85.10;;;;;;5035682;28;20271;-66
2023/02/14 02:07:40;;;;;;;0.35;0.35;;;2.70;85.30;;;;;;5035708;28;20401;-66
2023/02/14 02:10:07;;;;;;;0.30;0.30;;;2.60;85.20;;;;;;5035813;28;20222;-66
2023/02/14 02:12:36;;;;;;;0.40;0.40;;;2.60;85.40;;;;;;5035580;28;20185;-66
2023/02/14 02:15:04;;;;;;;0.40;0.40;;;2.60;85.90;;;;;;5035866;28;20261;-66
2023/02/14 02:18:03;;;;;;;0.60;0.60;;;2.60;86.00;;;;;;5035339;28;20654;-66
2023/02/14 02:20:50;;;;;;;0.40;0.40;;;2.70;85.20;;;;;;5035671;28;20180;-66
2023/02/14 02:23:27;;;;;;;0.30;0.30;;;2.60;84.60;;;;;;5035853;28;20195;-66
2023/02/14 02:26:24;;;;;;;0.40;0.40;;;2.70;83.50;;;;;;5035763;28;20598;-66
2023/02/14 02:29:15;;;;;;;0.30;0.30;;;2.70;83.20;;;;;;5032344;28;20186;-66
2023/02/14 02:32:08;;;;;;;0.30;0.30;;;2.70;83.10;;;;;;5034347;28;20217;-67
2023/02/14 02:35:11;;;;;;;0.50;0.50;;;2.60;83.00;;;;;;5035285;28;20167;-66
2023/02/14 02:38:22;;;;;;;0.30;0.30;;;2.60;83.50;;;;;;5035501;28;20182;-66
2023/02/14 02:41:13;;;;;;;0.43;0.43;;;2.70;82.30;;;;;;5035039;28;20177;-66
2023/02/14 02:44:15;;;;;;;1.67;1.58;;;2.70;80.30;;;;;;5034941;28;20275;-66
2023/02/14 02:46:52;;;;;;;0.40;0.40;;;2.70;80.90;;;;;;5027377;28;20670;-66
2023/02/14 02:55:07;;;;;;;0.30;0.30;;;2.60;83.60;;;;;;5035702;28;20509;-65
2023/02/14 02:57:37;;;;;;;0.40;0.40;;;2.60;81.20;;;;;;5034733;28;20628;-66
2023/02/14 03:00:05;;;;;;;0.30;0.30;;;2.70;79.70;;;;;;5033681;28;20174;-65
2023/02/14 03:04:46;;;;;;;0.47;0.47;;;2.70;78.40;;;;;;5034831;28;20280;-66
2023/02/14 03:05:26;;;;;;;0.30;0.30;;;2.80;78.60;;;;;;5034876;28;20205;-66
2023/02/14 03:07:51;;;;;;;0.60;0.60;;;2.70;79.30;;;;;;5034320;28;20193;-66
2023/02/14 03:10:23;;;;;;;0.30;0.30;;;2.60;80.60;;;;;;5033309;28;20207;-66
2023/02/14 03:13:22;;;;;;;0.30;0.30;;;2.50;81.90;;;;;;5034729;28;20216;-66
2023/02/14 03:15:56;;;;;;;0.30;0.30;;;2.50;83.60;;;;;;5034741;28;20257;-66
2023/02/14 03:21:33;;;;;;;0.30;0.30;;;2.60;82.80;;;;;;5034650;28;20229;-66
2023/02/14 03:24:23;;;;;;;0.40;0.40;;;2.60;80.60;;;;;;5034929;28;20158;-66
2023/02/14 03:26:56;;;;;;;0.40;0.40;;;2.70;77.80;;;;;;5034244;28;20627;-66
2023/02/14 03:30:03;;;;;;;0.77;0.77;;;2.80;74.80;;;;;;5034522;28;20248;-66
2023/02/14 03:32:51;;;;;;;0.32;0.32;;;2.80;74.60;;;;;;5030848;28;20288;-66
2023/02/14 03:35:30;;;;;;;0.40;0.40;;;2.80;76.50;;;;;;5034121;28;20183;-66
2023/02/14 03:38:06;;;;;;;0.40;0.40;;;2.80;76.70;;;;;;5034233;28;20181;-66
2023/02/14 03:40:53;;;;;;;0.95;0.95;;;2.70;77.30;;;;;;5034536;28;20292;-66
2023/02/14 03:43:27;;;;;;;1.20;1.20;;;2.80;79.20;;;;;;5033868;28;20206;-66
2023/02/14 03:46:12;;;;;;;0.82;0.82;;;2.70;79.30;;;;;;5034213;28;20178;-66
2023/02/14 03:48:39;;;;;;;2.70;2.50;;;2.70;80.40;;;;;;5034368;28;20182;-66
2023/02/14 03:51:09;;;;;;;0.90;0.90;;;2.60;80.40;;;;;;5034461;28;20210;-66
2023/02/14 03:53:37;;;;;;;0.40;0.40;;;2.70;80.40;;;;;;5034546;28;20212;-66
2023/02/14 03:56:16;;;;;;;0.40;0.40;;;2.70;80.70;;;;;;5033479;28;20191;-66
2023/02/14 03:58:46;;;;;;;0.30;0.30;;;2.60;81.00;;;;;;5033618;28;20202;-66
2023/02/14 04:01:27;;;;;;;0.50;0.50;;;2.70;81.70;;;;;;5034157;28;20170;-66
2023/02/14 04:03:55;;;;;;;0.35;0.35;;;2.70;81.10;;;;;;5033048;28;20205;-66
2023/02/14 04:06:21;;;;;;;0.38;0.38;;;2.70;80.60;;;;;;5033468;28;20296;-66
2023/02/14 04:08:47;;;;;;;1.08;1.08;;;2.60;81.10;;;;;;5033459;28;20187;-66
2023/02/14 04:11:13;;;;;;;0.33;0.33;;;2.60;81.50;;;;;;5033683;28;20213;-66
2023/02/14 04:13:39;;;;;;;0.40;0.40;;;2.60;81.60;;;;;;5034235;28;20184;-66
2023/02/14 04:16:05;;;;;;;0.30;0.30;;;2.70;80.60;;;;;;5033850;28;20701;-66
2023/02/14 04:21:15;;;;;;;0.40;0.40;;;2.60;80.80;;;;;;5033498;28;20662;-66
2023/02/14 04:23:41;;;;;;;0.40;0.40;;;2.50;81.20;;;;;;5033758;28;20167;-66
2023/02/14 04:26:07;;;;;;;0.40;0.40;;;2.50;80.40;;;;;;5033572;28;20555;-66
2023/02/14 04:28:33;;;;;;;0.30;0.30;;;2.60;78.90;;;;;;5033726;28;20178;-66
2023/02/14 04:31:03;;;;;;;0.40;0.40;;;2.60;77.30;;;;;;5033365;28;20205;-66
2023/02/14 04:33:29;;;;;;;0.40;0.40;;;2.70;75.00;;;;;;5032174;28;20194;-66
2023/02/14 04:35:55;;;;;;;0.40;0.40;;;2.70;73.70;;;;;;5033318;28;20647;-66
2023/02/14 04:38:21;;;;;;;0.40;0.40;;;2.80;74.80;;;;;;5033671;28;20444;-66
2023/02/14 04:40:50;;;;;;;0.97;0.70;;;2.80;76.80;;;;;;5033275;28;20736;-66
2023/02/14 04:43:16;;;;;;;0.40;0.40;;;2.70;77.40;;;;;;5033445;28;20217;-66
2023/02/14 04:45:42;;;;;;;0.38;0.38;;;2.60;78.00;;;;;;5033175;28;20182;-66
2023/02/14 04:48:08;;;;;;;0.73;0.73;;;2.70;78.00;;;;;;5033307;28;20183;-66
2023/02/14 04:50:33;;;;;;;4.27;2.00;;;2.70;76.10;;;;;;5033368;28;20224;-66
2023/02/14 04:52:59;;;;;;;0.40;0.40;;;2.70;74.40;;;;;;5033484;28;20325;-66
2023/02/14 04:55:25;;;;;;;0.30;0.30;;;2.70;73.80;;;;;;5033212;28;20175;-66
2023/02/14 04:57:50;;;;;;;0.40;0.40;;;2.80;96.60;;;;;;5032904;28;20178;-66
2023/02/14 05:00:16;;;;;;;0.37;0.37;;;2.40;99.90;;;;;;5032972;28;20187;-66
2023/02/14 05:02:42;;;;;;;0.40;0.40;;;2.70;99.90;;;;;;5033348;28;20538;-66
2023/02/14 05:05:08;;;;;;;0.53;0.53;;;2.50;99.90;;;;;;5033246;28;20175;-66
2023/02/14 05:07:33;;;;;;;1.33;1.20;;;2.50;95.10;;;;;;5033242;28;20175;-66
2023/02/14 05:09:59;;;;;;;0.30;0.30;;;2.90;99.90;;;;;;5036940;28;20244;-66
2023/02/14 05:12:24;;;;;;;4.53;1.07;;;2.40;78.40;;;;;;5036552;28;20208;-66
2023/02/14 05:14:50;;;;;;;0.30;0.30;;;2.60;73.20;;;;;;5035345;28;20169;-66
2023/02/14 05:17:16;;;;;;;0.40;0.40;;;2.70;71.80;;;;;;5036509;28;20182;-66
2023/02/14 05:19:41;;;;;;;0.40;0.40;;;2.80;72.50;;;;;;5036708;28;20170;-66
2023/02/14 05:22:07;;;;;;;0.30;0.30;;;2.80;73.80;;;;;;5036818;28;20191;-66
2023/02/14 05:24:33;;;;;;;0.53;0.53;;;2.70;74.40;;;;;;5036934;28;20484;-65
2023/02/14 05:26:58;;;;;;;0.93;0.67;;;2.70;74.40;;;;;;5036268;28;20174;-66
2023/02/14 05:29:24;;;;;;;1.23;0.67;;;2.70;75.20;;;;;;5036998;28;20170;-66
2023/02/14 05:31:50;;;;;;;2.50;0.93;;;2.70;75.80;;;;;;5036147;28;20199;-66
2023/02/14 05:34:15;;;;;;;1.13;0.97;;;2.70;75.60;;;;;;5036539;28;20232;-66
2023/02/14 05:36:41;;;;;;;0.33;0.33;;;2.80;76.20;;;;;;5036138;28;20700;-66
2023/02/14 05:39:07;;;;;;;0.40;0.40;;;2.80;76.60;;;;;;5035436;28;20173;-66
2023/02/14 05:41:32;;;;;;;0.30;0.30;;;2.80;76.70;;;;;;5036737;28;20189;-66
2023/02/14 05:43:58;;;;;;;0.30;0.30;;;2.80;76.20;;;;;;5035860;28;20189;-66
2023/02/14 05:46:23;;;;;;;1.00;1.00;;;2.80;75.80;;;;;;5035771;28;20178;-66
2023/02/14 05:48:49;;;;;;;1.37;1.20;;;2.90;75.60;;;;;;5035448;28;20213;-66
2023/02/14 05:51:15;;;;;;;0.30;0.30;;;3.80;99.90;;;;;;5035631;28;20198;-66
2023/02/14 05:53:40;;;;;;;0.30;0.30;;;2.80;77.60;;;;;;5035825;28;20554;-66
2023/02/14 05:56:06;;;;;;;0.40;0.40;;;2.70;76.00;;;;;;5035742;28;20181;-66
2023/02/14 05:58:32;;;;;;;0.40;0.40;;;2.70;76.70;;;;;;5035651;28;20774;-66
2023/02/14 06:00:58;;;;;;;0.60;0.60;;;2.70;76.10;;;;;;5035569;28;20261;-66
2023/02/14 06:03:24;;;;;;;0.30;0.30;;;2.70;74.60;;;;;;5035552;28;20199;-66
2023/02/14 06:05:50;;;;;;;0.40;0.40;;;2.80;74.00;;;;;;5035741;28;20265;-66
2023/02/14 06:08:16;;;;;;;1.33;0.83;;;2.80;73.70;;;;;;5035743;28;20257;-66
2023/02/14 06:10:41;;;;;;;0.30;0.30;;;2.80;73.40;;;;;;5035613;28;20269;-66
2023/02/14 06:13:07;;;;;;;0.53;0.53;;;2.80;73.40;;;;;;5035403;28;20655;-65
2023/02/14 06:15:34;;;;;;;0.40;0.40;;;2.80;73.00;;;;;;5035459;28;20169;-66
2023/02/14 06:18:00;;;;;;;0.40;0.40;;;2.80;73.60;;;;;;5035309;28;20262;-66
2023/02/14 06:20:26;;;;;;;0.40;0.40;;;2.80;74.10;;;;;;5034646;28;20250;-66
2023/02/14 06:22:53;;;;;;;0.30;0.30;;;2.80;74.00;;;;;;5033124;28;20204;-66
2023/02/14 06:25:19;;;;;;;0.40;0.40;;;2.80;76.00;;;;;;5035409;28;20188;-66
2023/02/14 06:27:45;;;;;;;4.80;0.75;;;2.70;77.80;;;;;;5035501;28;20220;-66
2023/02/14 06:30:12;;;;;;;0.40;0.40;;;2.60;79.60;;;;;;5033303;28;20203;-66
2023/02/14 06:32:38;;;;;;;0.40;0.40;;;2.70;79.90;;;;;;5034000;28;20429;-66
2023/02/14 06:35:04;;;;;;;1.80;0.60;;;2.70;79.60;;;;;;5034389;28;20171;-66
2023/02/14 06:37:29;;;;;;;0.40;0.40;;;2.70;79.10;;;;;;5033898;28;20409;-66
2023/02/14 06:39:55;;;;;;;0.60;0.60;;;2.50;97.60;;;;;;5035597;28;20178;-66
2023/02/14 06:42:21;;;;;;;0.50;0.50;;;2.70;78.90;;;;;;5035003;28;20187;-66
2023/02/14 06:44:46;;;;;;;0.50;0.50;;;2.70;79.00;;;;;;5035026;28;20186;-66
2023/02/14 06:47:12;;;;;;;0.70;0.70;;;2.70;79.60;;;;;;5035100;28;20220;-66
2023/02/14 06:49:38;;;;;;;0.70;0.60;;;2.80;79.00;;;;;;5035163;28;20167;-66
2023/02/14 06:52:04;;;;;;;0.68;0.68;;;2.80;77.60;;;;;;5035184;28;20288;-66
2023/02/14 06:54:30;;;;;;;0.30;0.30;;;2.80;77.60;;;;;;5035412;28;20167;-66
2023/02/14 06:56:55;;;;;;;0.40;0.40;;;2.90;78.20;;;;;;5034750;28;20243;-66
2023/02/14 06:59:21;;;;;;;0.50;0.50;;;2.90;79.50;;;;;;5034817;28;20167;-66
2023/02/14 07:01:47;;;;;;;0.90;0.90;;;2.90;80.20;;;;;;5034605;28;20212;-66
2023/02/14 07:04:12;;;;;;;0.40;0.40;;;2.90;80.40;;;;;;5034968;28;20173;-66
2023/02/14 07:06:38;;;;;;;0.37;0.37;;;3.00;80.50;;;;;;5034385;28;20566;-66
2023/02/14 07:09:04;;;;;;;0.40;0.40;;;3.00;79.80;;;;;;5033877;28;20259;-68
2023/02/14 07:11:30;;;;;;;0.45;0.45;;;3.00;79.00;;;;;;5033526;28;20329;-67
2023/02/14 07:13:56;;;;;;;0.63;0.63;;;3.00;79.20;;;;;;5034516;28;20182;-65
2023/02/14 07:16:21;;;;;;;0.60;0.60;;;3.10;79.60;;;;;;5034156;28;20167;-65
2023/02/14 07:18:48;;;;;;;23.87;1.17;;;3.10;79.50;;;;;;5033365;28;20182;-68
2023/02/14 07:21:13;;;;;;;0.40;0.40;;;3.10;79.40;;;;;;5034674;28;20178;-67
2023/02/14 07:23:39;;;;;;;0.90;0.90;;;3.20;79.20;;;;;;5034792;28;20178;-67
2023/02/14 07:26:04;;;;;;;0.87;0.60;;;3.30;78.60;;;;;;5033858;28;20209;-67
2023/02/14 07:28:30;;;;;;;0.33;0.33;;;3.30;77.70;;;;;;5034415;28;20634;-67
2023/02/14 07:31:00;;;;;;;0.40;0.40;;;3.20;76.80;;;;;;5034135;28;20293;-67
2023/02/14 07:33:25;;;;;;;0.40;0.40;;;3.30;77.20;;;;;;5034456;28;20192;-67
2023/02/14 07:35:51;;;;;;;0.63;0.53;;;3.30;78.00;;;;;;5034390;28;20620;-67
2023/02/14 07:38:17;;;;;;;0.57;0.57;;;3.20;79.50;;;;;;5034506;28;20599;-67
2023/02/14 07:40:43;;;;;;;0.90;0.90;;;3.20;80.30;;;;;;5033928;28;20402;-66
2023/02/14 07:43:08;;;;;;;1.00;1.00;;;3.20;80.10;;;;;;5033793;28;20206;-66
2023/02/14 07:45:34;;;;;;;0.67;0.67;;;3.10;79.60;;;;;;5034165;28;20177;-69
2023/02/14 07:48:01;;;;;;;0.97;0.70;;;3.20;79.90;;;;;;5034066;28;20182;-67
2023/02/14 07:50:27;;;;;;;0.50;0.50;;;3.50;80.60;;;;;;5033827;28;20206;-66
2023/02/14 07:52:54;;;;;;;0.40;0.40;;;4.80;81.80;;;;;;5033749;28;20322;-67
2023/02/14 07:55:21;;;;;;;0.65;0.65;;;7.10;75.70;;;;;;5034028;28;20181;-68
2023/02/14 07:57:48;;;;;;;0.80;0.80;;;9.60;69.30;;;;;;5033695;28;20170;-68
2023/02/14 08:00:14;;;;;;;1.00;0.50;;;12.10;60.80;;;;;;5034079;28;20885;-68
2023/02/14 08:02:40;;;;;;;1.30;0.73;;;14.30;54.80;;;;;;5033595;28;20426;-69
2023/02/14 08:05:06;;;;;;;0.97;0.63;;;16.00;47.90;;;;;;5034158;28;20464;-69
2023/02/14 08:07:33;;;;;;;0.83;0.83;;;17.40;43.50;;;;;;5033432;28;20425;-67
2023/02/14 08:09:58;;;;;;;1.20;1.10;;;18.50;40.60;;;;;;5033522;28;20399;-67
2023/02/14 08:17:52;;;;;;;0.70;0.70;;;20.70;35.90;;;;;;5033518;28;20504;-68
2023/02/14 08:20:18;;;;;;;0.40;0.40;;;21.10;35.00;;;;;;5033713;28;20492;-68
2023/02/14 08:22:43;;;;;;;0.73;0.70;;;21.40;34.00;;;;;;5033768;28;20285;-69
2023/02/14 08:25:09;;;;;;;0.90;0.90;;;21.70;33.50;;;;;;5033610;28;20167;-69
2023/02/14 08:27:35;;;;;;;0.50;0.50;;;22.10;33.30;;;;;;5033630;28;20635;-69
2023/02/14 08:30:01;;;;;;;1.50;1.40;;;22.80;33.10;;;;;;5033932;28;20616;-69
2023/02/14 08:32:26;;;;;;;1.53;0.70;;;23.20;32.00;;;;;;5031691;28;20425;-69
2023/02/14 08:34:52;;;;;;;0.77;0.77;;;23.50;31.50;;;;;;5033562;28;20170;-69
2023/02/14 08:37:17;;;;;;;0.80;0.70;;;24.00;30.90;;;;;;5033275;28;20209;-68
2023/02/14 08:39:43;;;;;;;1.20;1.10;;;24.60;30.60;;;;;;5033527;28;20170;-70
2023/02/14 08:42:09;;;;;;;1.03;0.83;;;25.20;30.00;;;;;;5033250;28;20187;-69
2023/02/14 08:44:34;;;;;;;1.10;1.00;;;25.70;29.60;;;;;;5037077;28;20643;-69
2023/02/14 08:47:00;;;;;;;0.50;0.50;;;26.10;29.10;;;;;;5037199;28;20198;-70
2023/02/14 08:49:25;;;;;;;0.70;0.70;;;26.50;28.40;;;;;;5037051;28;20170;-69
2023/02/14 08:51:51;;;;;;;1.20;0.90;;;26.70;27.80;;;;;;5037062;28;20199;-68
2023/02/14 08:54:16;;;;;;;1.13;0.50;;;26.70;27.70;;;;;;5036540;28;20253;-71
2023/02/14 08:56:42;;;;;;;0.60;0.60;;;26.60;27.30;;;;;;5034728;28;20566;-71
2023/02/14 08:59:08;;;;;;;1.67;1.57;;;26.70;27.10;;;;;;5037396;28;20194;-68
2023/02/14 09:01:35;;;;;;;2.70;1.83;;;26.90;27.10;;;;;;5037208;28;20187;-66
2023/02/14 09:04:01;;;;;;;2.10;1.10;;;26.60;27.80;;;;;;5036831;28;20171;-68
2023/02/14 09:06:26;;;;;;;1.63;1.30;;;26.40;28.20;;;;;;5036568;28;20472;-68
2023/02/14 09:08:53;;;;;;;3.90;1.60;;;26.00;28.10;;;;;;5037071;28;20756;-70
2023/02/14 09:11:21;;;;;;;1.57;1.33;;;25.50;28.30;;;;;;5036834;28;20194;-70
2023/02/14 09:13:47;;;;;;;1.50;1.30;;;25.30;28.10;;;;;;5037201;28;20427;-69
2023/02/14 09:16:16;;;;;;;1.93;1.30;;;25.20;27.60;;;;;;5036866;28;20816;-71
2023/02/14 09:18:42;;;;;;;1.63;1.53;;;25.30;27.50;;;;;;5036639;28;20409;-68
2023/02/14 09:21:10;;;;;;;3.00;1.37;;;25.70;27.70;;;;;;5035182;28;20898;-67
2023/02/14 09:23:36;;;;;;;2.27;0.93;;;26.30;27.90;;;;;;5036638;28;20404;-67
2023/02/14 09:26:05;;;;;;;2.43;2.27;;;27.10;28.00;;;;;;5036698;28;20775;-67
2023/02/14 09:28:31;;;;;;;2.23;1.20;;;27.90;27.20;;;;;;5036994;28;20397;-67
2023/02/14 09:30:57;;;;;;;1.50;1.40;;;28.60;26.40;;;;;;5036182;28;20457;-68
2023/02/14 09:33:25;;;;;;;1.67;1.10;;;29.30;25.80;;;;;;5034851;28;20233;-70
2023/02/14 09:35:51;;;;;;;1.23;1.00;;;29.70;25.50;;;;;;5036270;28;20408;-68
2023/02/14 09:38:19;;;;;;;1.83;0.67;;;30.20;25.00;;;;;;5036542;28;20496;-69
2023/02/14 09:40:46;;;;;;;1.57;1.17;;;30.40;24.90;;;;;;5036451;28;20175;-69
2023/02/14 09:43:29;;;;;;;1.60;1.43;;;30.60;25.10;;;;;;5035832;28;20448;-69
2023/02/14 09:45:58;;;;;;;3.80;1.30;;;30.80;25.00;;;;;;5034746;28;20424;-69
2023/02/14 09:48:27;;;;;;;1.50;1.40;;;30.90;24.80;;;;;;5036223;28;20920;-68
2023/02/14 09:50:59;;;;;;;1.37;1.20;;;31.00;24.70;;;;;;5036459;28;20435;-69
2023/02/14 09:53:31;;;;;;;1.30;1.20;;;31.10;24.30;;;;;;5034488;28;20801;-69
2023/02/14 09:56:06;;;;;;;1.83;1.30;;;31.30;25.20;;;;;;5034895;28;20882;-69
2023/02/14 09:58:46;;;;;;;0.67;0.67;;;31.20;25.30;;;;;;5036017;28;20874;-69
2023/02/14 10:01:22;;;;;;;0.60;0.60;;;31.20;25.00;;;;;;5036009;28;20614;-69
2023/02/14 10:04:03;;;;;;;0.73;0.73;;;31.30;25.60;;;;;;5036310;28;20393;-69
2023/02/14 10:06:57;;;;;;;1.07;1.07;;;31.40;25.30;;;;;;5035492;28;20471;-69
2023/02/14 10:09:40;;;;;;;0.60;0.50;;;31.40;25.60;;;;;;5034135;28;20405;-69
2023/02/14 10:12:13;;;;;;;1.00;0.80;;;31.30;25.30;;;;;;5036010;28;20494;-69
2023/02/14 10:14:39;;;;;;;1.20;0.70;;;31.10;25.20;;;;;;5036078;28;20393;-68
2023/02/14 10:17:15;;;;;;;1.30;1.00;;;31.00;25.30;;;;;;5035449;28;20460;-69
2023/02/14 10:19:51;;;;;;;3.90;0.60;;;30.90;25.60;;;;;;5035571;28;20401;-69
2023/02/14 10:22:20;;;;;;;1.00;0.70;;;30.70;25.10;;;;;;5035299;28;20788;-71
2023/02/14 10:25:18;;;;;;;0.97;0.90;;;30.50;24.30;;;;;;5033798;28;20402;-68
2023/02/14 10:27:48;;;;;;;1.60;0.60;;;30.20;25.40;;;;;;5031228;28;20414;-68
2023/02/14 10:30:16;;;;;;;2.40;2.00;;;30.00;25.70;;;;;;5035574;28;20489;-67
2023/02/14 10:32:47;;;;;;;3.83;2.97;;;29.80;26.00;;;;;;5033637;28;20435;-67
2023/02/14 10:35:38;;;;;;;2.43;1.90;;;29.50;25.50;;;;;;5034870;28;20405;-67
2023/02/14 10:38:19;;;;;;;1.83;1.60;;;29.00;25.40;;;;;;5034889;28;20401;-67
2023/02/14 10:40:59;;;;;;;1.87;0.90;;;28.70;25.20;;;;;;5034842;28;20989;-67
2023/02/14 10:43:46;;;;;;;2.00;1.40;;;28.50;25.90;;;;;;5033162;28;20479;-67
2023/02/14 10:46:21;;;;;;;1.10;1.00;;;28.20;26.00;;;;;;5034739;28;20393;-66
2023/02/14 10:48:59;;;;;;;0.50;0.47;;;27.70;25.70;;;;;;5034747;28;20443;-66
2023/02/14 10:51:24;;;;;;;0.40;0.40;;;27.30;25.80;;;;;;5035142;28;20460;-66
2023/02/14 10:54:08;;;;;;;0.83;0.63;;;26.80;25.80;;;;;;5035240;28;20767;-66
2023/02/14 10:56:52;;;;;;;0.90;0.70;;;26.40;24.90;;;;;;5034646;28;20179;-66
2023/02/14 10:59:29;;;;;;;1.57;0.77;;;25.60;26.70;;;;;;5034929;28;20463;-66
2023/02/14 11:01:57;;;;;;;0.40;0.40;;;25.00;26.70;;;;;;5034501;28;20510;-66
2023/02/14 11:04:24;;;;;;;1.00;0.90;;;24.60;25.80;;;;;;5035238;28;20774;-66
2023/02/14 11:06:51;;;;;;;1.17;0.83;;;23.90;25.30;;;;;;5033677;28;20834;-66
2023/02/14 11:09:17;;;;;;;0.47;0.47;;;23.20;25.90;;;;;;5034465;28;20427;-66
2023/02/14 11:11:50;;;;;;;0.40;0.40;;;22.60;25.00;;;;;;5033271;28;20438;-66
2023/02/14 11:14:30;;;;;;;0.47;0.47;;;21.70;24.70;;;;;;5034735;28;20398;-69
2023/02/14 11:16:57;;;;;;;0.90;0.90;;;20.90;26.30;;;;;;5033006;28;20417;-69
2023/02/14 11:19:35;;;;;;;0.50;0.47;;;20.50;26.80;;;;;;5034341;28;20413;-68
2023/02/14 11:22:01;;;;;;;0.40;0.40;;;19.90;25.80;;;;;;5033948;28;20464;-68
2023/02/14 11:24:33;;;;;;;0.83;0.80;;;19.20;26.10;;;;;;5034474;28;20957;-68
2023/02/14 11:27:16;;;;;;;0.50;0.50;;;18.90;26.90;;;;;;5033899;28;20197;-68
2023/02/14 11:29:46;;;;;;;0.50;0.50;;;18.40;26.40;;;;;;5033250;28;20423;-68
2023/02/14 11:32:33;;;;;;;0.30;0.30;;;18.10;28.10;;;;;;5034329;28;20424;-68
2023/02/14 11:35:02;;;;;;;0.70;0.70;;;17.90;27.20;;;;;;5034285;28;20398;-68
2023/02/14 11:37:31;;;;;;;0.40;0.40;;;17.50;26.40;;;;;;5033844;28;20405;-68
2023/02/14 11:39:59;;;;;;;0.63;0.63;;;17.20;26.70;;;;;;5034261;28;20463;-68
2023/02/14 11:42:46;;;;;;;1.00;0.90;;;16.90;27.80;;;;;;5033638;28;20920;-68
2023/02/14 11:45:30;;;;;;;0.83;0.60;;;16.80;28.60;;;;;;5033675;28;20413;-68
2023/02/14 11:48:19;;;;;;;0.40;0.40;;;16.70;28.40;;;;;;5033563;28;20393;-68
2023/02/14 11:50:59;;;;;;;0.40;0.40;;;16.60;29.00;;;;;;5033659;28;20437;-68
2023/02/14 11:53:28;;;;;;;0.70;0.63;;;16.40;29.30;;;;;;5033471;28;20413;-68
2023/02/14 11:55:56;;;;;;;0.50;0.50;;;16.30;30.10;;;;;;5033370;28;20735;-68
2023/02/14 11:58:44;;;;;;;0.40;0.40;;;16.20;30.20;;;;;;5033455;28;20492;-68
2023/02/14 12:01:19;;;;;;;1.40;1.13;;;16.10;29.40;;;;;;5029859;28;20462;-68
2023/02/14 12:03:47;;;;;;;0.67;0.67;;;15.90;29.90;;;;;;5033605;28;20771;-68
2023/02/14 12:06:23;;;;;;;1.43;0.80;;;15.90;29.90;;;;;;5033324;28;20445;-68
2023/02/14 12:08:49;;;;;;;0.90;0.67;;;15.80;30.00;;;;;;5033691;28;20484;-68
2023/02/14 12:11:21;;;;;;;0.50;0.50;;;15.60;30.20;;;;;;5033171;28;20839;-68
2023/02/14 12:13:54;;;;;;;0.40;0.40;;;15.60;30.80;;;;;;5033247;28;20175;-68
2023/02/14 12:16:28;;;;;;;0.47;0.47;;;15.60;30.90;;;;;;5033112;28;20784;-68
2023/02/14 12:19:26;;;;;;;1.37;0.50;;;15.60;29.50;;;;;;5032529;28;20404;-68
2023/02/14 12:22:04;;;;;;;0.30;0.30;;;15.60;29.30;;;;;;5031769;28;20479;-68
2023/02/14 12:24:35;;;;;;;0.30;0.30;;;15.40;30.00;;;;;;5033177;28;20403;-68
2023/02/14 12:27:04;;;;;;;0.50;0.50;;;15.30;30.90;;;;;;5033135;28;20452;-68
2023/02/14 12:29:44;;;;;;;0.40;0.40;;;15.20;29.80;;;;;;5033054;28;20425;-68
2023/02/14 12:32:28;;;;;;;0.80;0.80;;;15.10;30.40;;;;;;5033061;28;20459;-68
2023/02/14 12:35:14;;;;;;;0.83;0.83;;;15.10;30.30;;;;;;5033201;28;20402;-68
2023/02/14 12:38:07;;;;;;;0.73;0.73;;;15.20;31.40;;;;;;5032986;28;20500;-68
2023/02/14 12:40:56;;;;;;;1.93;1.40;;;15.20;31.00;;;;;;5021714;28;20957;-68
2023/02/14 12:43:31;;;;;;;0.60;0.60;;;15.10;31.90;;;;;;5032981;28;20447;-70
2023/02/14 12:46:28;;;;;;;0.83;0.83;;;15.00;31.10;;;;;;5032875;28;20488;-68
2023/02/14 12:49:17;;;;;;;0.40;0.40;;;14.90;31.10;;;;;;5033142;28;20756;-68
2023/02/14 12:52:02;;;;;;;0.40;0.40;;;14.80;30.70;;;;;;5032980;28;20426;-68
2023/02/14 12:54:49;;;;;;;0.50;0.50;;;14.70;30.90;;;;;;5032953;28;20397;-68
2023/02/14 12:57:35;;;;;;;0.87;0.60;;;14.70;31.30;;;;;;5032682;28;20495;-68
2023/02/14 13:00:51;;;;;;;0.40;0.40;;;14.60;31.90;;;;;;5032857;28;20421;-68
2023/02/14 13:03:35;;;;;;;0.40;0.40;;;14.50;30.80;;;;;;5033667;28;20432;-68
2023/02/14 13:06:28;;;;;;;0.67;0.67;;;14.40;30.30;;;;;;5031065;28;20440;-68
2023/02/14 13:09:09;;;;;;;0.93;0.90;;;14.30;30.10;;;;;;5030556;28;20421;-68
2023/02/14 13:11:55;;;;;;;0.40;0.40;;;14.20;30.00;;;;;;5032837;28;20448;-68
2023/02/14 13:14:30;;;;;;;0.50;0.50;;;13.80;40.60;;;;;;5032030;28;20406;-68
2023/02/14 13:17:28;;;;;;;0.60;0.60;;;13.90;31.70;;;;;;5032655;28;20450;-68
2023/02/14 13:20:50;;;;;;;0.60;0.60;;;13.70;33.50;;;;;;5032602;28;20933;-68
2023/02/14 13:23:30;;;;;;;1.10;1.03;;;13.60;33.50;;;;;;5031702;28;20429;-68
2023/02/14 13:26:13;;;;;;;0.43;0.43;;;13.50;33.90;;;;;;5032377;28;20932;-68
2023/02/14 13:28:54;;;;;;;0.40;0.40;;;13.40;34.00;;;;;;5032833;28;20488;-68
2023/02/14 13:31:20;;;;;;;0.70;0.70;;;13.40;34.70;;;;;;5036133;28;20440;-68
2023/02/14 13:33:52;;;;;;;0.50;0.50;;;13.30;35.80;;;;;;5036039;28;20401;-70
2023/02/14 13:36:19;;;;;;;0.60;0.60;;;13.20;35.70;;;;;;5034721;28;20470;-70